Elwood, New York
Current Conditions -  °F | °C
As of 4:53 AM on Sunday 25 Jan 2015 (Local Time) from KFRG Reporting Station
Clear Clear  
Wind Chill: -3°   Ceiling: Unl
Heat Index:   Visibility: 10mi
Dew Point: -4°   Wind: 10mph
Humidity: 70%   Direction: 270°W
Pressure: 29.59"   Gusts: NA
Location:  40.85°N, 73.33°W
Report Text: KFRG 250953Z AUTO 27009KT 10SM CLR 01/M04 A2959 RMK AO2 SLP021 T00111039
Loading
Personal Weather Stations






























Interactive Weather Map New forecast layout! Learn more

10-Day Weather Forecast

Advertisements
Track Severe Weather on mobile